Aérodrome :
LOGIN :

S'inscrire | Disclaimer

   EN    FR    IT 

 










Légende :    VFR   VFR Marginal   IFR   IFR Intensif   IFR Très Intensif
Visi : 
Plafond : 
>= 8 km
>= 3000ft
5 à 8 km
1000 à 3000 ft
1500m à 5 km
500 à 1000 ft
800 à 1500m
200 à 500 ft
< 800m
< 200 ft
Symboles :   Orages  Brouillard  Fortes neiges  Fortes précipitations  Vent > 20 kt
SIGMETs :   Divers  Orages  Givrage  Turbulence  Onde Orograph.  Cendres Volcan.







- Altitude de l'aérodrome : 106 ft
- Code IATA : NRN


EDLV - Weeze

DERNIER METAR :
  • 261620Z 28012KT 250V320 9999 SCT062CB 14/02 Q1016

METARs EXPIRÉS :
  • 261550Z 28013KT 260V330 CAVOK 14/01 Q1016
  • 261520Z VRB10KT CAVOK 14/02 Q1016
  • 261450Z 27014KT 250V310 CAVOK 15/03 Q1016
  • 261420Z 27015KT CAVOK 15/03 Q1016
  • 261350Z 27016KT 230V310 9999 SCT048 15/03 Q1016

TAF TAF EDLV
Valide du 26 à 12h jusqu'au 27 à 12h UTC


261100Z 2612/2712 25013KT 9999 SCT040
PROB40
TEMPO 2612/2617 27015G25KT SHRA BKN020CB
BECMG 2618/2621 22005KT
BECMG 2623/2702 16005KT
Pas de NOTAMs connus pour ce terrain.



MET'MAP, la Météo Aéronautique d'un coup d'oeil ! - Copyright ORBIFLY Décembre 2007 - Disclaimer

ORBIFLY MET'MAP TEAM :

Programmation & Développement : Alexandra Zaïnal
Conception & Développement : Baudouin d'Aumeries
Co-Programmation & Développement : Marc-Olivier Méhu
Soutien technique & logistique : Manuel Goepfert

Contact : metmap@orbifly.com




SOURCES & CREDITS :

   NOAA